createdAt,value
2023-03-20T00:01:23.273Z,1.40
2023-03-20T00:03:58.287Z,0.87
2023-03-20T00:06:34.271Z,1.20
2023-03-20T00:09:09.271Z,1.27
2023-03-20T00:11:51.290Z,1.10
2023-03-20T00:14:29.189Z,1.20
2023-03-20T00:17:03.255Z,1.00
2023-03-20T00:19:37.204Z,1.13
2023-03-20T00:22:11.226Z,1.20
2023-03-20T00:24:38.969Z,1.10
2023-03-20T00:27:14.393Z,1.00
2023-03-20T00:29:50.759Z,0.90
2023-03-20T00:32:25.190Z,1.10
2023-03-20T00:34:55.962Z,1.13
2023-03-20T00:37:30.229Z,0.90
2023-03-20T00:39:57.668Z,0.93
2023-03-20T00:42:32.284Z,1.00
2023-03-20T00:45:13.222Z,0.80
2023-03-20T00:47:48.251Z,0.70
2023-03-20T00:50:18.550Z,1.10
2023-03-20T00:52:52.287Z,0.90
2023-03-20T00:55:24.327Z,0.83
2023-03-20T00:58:07.250Z,0.70
2023-03-20T01:00:46.056Z,0.90
2023-03-20T01:03:30.229Z,0.80
2023-03-20T01:06:11.200Z,0.60
2023-03-20T01:08:45.235Z,0.73
2023-03-20T01:11:30.232Z,0.80
2023-03-20T01:14:05.226Z,0.60
2023-03-20T01:16:39.243Z,0.73
2023-03-20T01:19:13.536Z,0.83
2023-03-20T01:21:42.045Z,0.93
2023-03-20T01:24:16.272Z,1.50
2023-03-20T01:26:46.901Z,1.70
2023-03-20T01:29:34.349Z,1.80
2023-03-20T01:32:01.782Z,1.83
2023-03-20T01:34:35.389Z,1.87
2023-03-20T01:37:04.468Z,2.10
2023-03-20T01:39:43.267Z,1.90
2023-03-20T01:42:15.844Z,1.93
2023-03-20T01:44:52.218Z,2.23
2023-03-20T01:47:30.218Z,2.50
2023-03-20T01:50:37.215Z,2.17
2023-03-20T01:53:23.212Z,2.03
2023-03-20T01:56:01.550Z,2.50
2023-03-20T01:58:32.517Z,2.30
2023-03-20T02:01:00.587Z,2.63
2023-03-20T02:03:34.234Z,2.37
2023-03-20T02:06:15.278Z,2.30
2023-03-20T02:08:49.408Z,2.07
2023-03-20T02:11:25.212Z,2.40
2023-03-20T02:14:05.333Z,1.97
2023-03-20T02:16:39.290Z,2.43
2023-03-20T02:19:17.384Z,2.40
2023-03-20T02:22:29.256Z,2.50
2023-03-20T02:25:29.529Z,2.03
2023-03-20T02:28:06.307Z,2.37
2023-03-20T02:30:55.286Z,2.03
2023-03-20T02:34:16.234Z,1.93
2023-03-20T02:37:09.217Z,2.03
2023-03-20T02:40:27.642Z,2.13
2023-03-20T02:43:17.320Z,2.00
2023-03-20T02:46:19.338Z,2.40
2023-03-20T02:49:18.668Z,2.00
2023-03-20T02:52:14.281Z,2.23
2023-03-20T02:54:57.345Z,2.10
2023-03-20T02:57:58.337Z,2.10
2023-03-20T03:01:02.209Z,1.93
2023-03-20T03:03:49.214Z,2.27
2023-03-20T03:06:34.391Z,2.20
2023-03-20T03:09:27.351Z,1.63
2023-03-20T03:11:57.887Z,1.93
2023-03-20T03:14:49.350Z,1.53
2023-03-20T03:17:30.354Z,1.70
2023-03-20T03:20:02.771Z,1.93
2023-03-20T03:22:38.354Z,1.90
2023-03-20T03:25:06.656Z,1.80
2023-03-20T03:27:54.243Z,1.57
2023-03-20T03:30:28.623Z,1.80
2023-03-20T03:33:35.343Z,2.13
2023-03-20T03:36:31.866Z,1.70
2023-03-20T03:39:17.314Z,2.00
2023-03-20T03:41:57.558Z,1.63
2023-03-20T03:44:44.609Z,1.80
2023-03-20T03:47:21.667Z,1.80
2023-03-20T03:50:27.378Z,2.10
2023-03-20T03:53:06.332Z,1.93
2023-03-20T03:55:46.390Z,2.17
2023-03-20T03:58:23.420Z,2.10
2023-03-20T04:00:59.390Z,2.23
2023-03-20T04:03:36.597Z,2.10
2023-03-20T04:06:13.325Z,2.43
2023-03-20T04:08:55.357Z,2.33
2023-03-20T04:11:31.326Z,2.47
2023-03-20T04:14:05.351Z,2.33
2023-03-20T04:16:32.771Z,2.40
2023-03-20T04:19:06.342Z,2.60
2023-03-20T04:21:33.729Z,2.43
2023-03-20T04:24:08.413Z,2.73
2023-03-20T04:26:35.818Z,2.77
2023-03-20T04:29:10.416Z,2.50
2023-03-20T04:31:39.938Z,2.63
2023-03-20T04:34:14.382Z,2.50
2023-03-20T04:36:43.175Z,2.67
2023-03-20T04:39:11.344Z,2.17
2023-03-20T04:41:46.122Z,2.50
2023-03-20T04:44:13.746Z,2.30
2023-03-20T04:46:49.583Z,2.70
2023-03-20T04:49:23.369Z,2.60
2023-03-20T04:51:51.669Z,2.60
2023-03-20T04:54:26.363Z,2.60
2023-03-20T04:56:53.693Z,2.50
2023-03-20T04:59:27.359Z,2.80
2023-03-20T05:01:55.735Z,2.97
2023-03-20T05:04:30.536Z,2.80
2023-03-20T05:07:18.318Z,2.70
2023-03-20T05:09:52.326Z,3.03
2023-03-20T05:12:19.975Z,2.97
2023-03-20T05:14:54.373Z,2.70
2023-03-20T05:17:23.582Z,2.87
2023-03-20T05:19:57.365Z,2.77
2023-03-20T05:22:24.883Z,2.40
2023-03-20T05:24:59.601Z,2.73
2023-03-20T05:27:27.050Z,2.23
2023-03-20T05:30:08.406Z,2.30
2023-03-20T05:32:37.039Z,2.37
2023-03-20T05:35:11.404Z,2.30
2023-03-20T05:37:39.617Z,2.23
2023-03-20T05:40:14.471Z,2.27
2023-03-20T05:42:41.951Z,2.37
2023-03-20T05:45:16.389Z,2.23
2023-03-20T05:47:43.778Z,2.60
2023-03-20T05:50:18.327Z,2.10
2023-03-20T05:52:55.376Z,2.10
2023-03-20T05:55:22.790Z,2.03
2023-03-20T05:57:58.405Z,2.00
2023-03-20T06:00:32.396Z,1.80
2023-03-20T06:02:59.895Z,2.03
2023-03-20T06:05:34.644Z,1.70
2023-03-20T06:08:09.532Z,1.50
2023-03-20T06:10:43.538Z,1.50
2023-03-20T06:13:13.690Z,1.63
2023-03-20T06:15:47.452Z,2.00
2023-03-20T06:18:22.472Z,1.40
2023-03-20T06:21:04.465Z,1.60
2023-03-20T06:23:32.502Z,2.00
2023-03-20T06:26:06.468Z,2.07
2023-03-20T06:28:41.487Z,2.10
2023-03-20T06:31:16.735Z,2.80
2023-03-20T06:33:45.693Z,2.70
2023-03-20T06:36:20.509Z,3.13
2023-03-20T06:38:48.595Z,3.30
2023-03-20T06:41:33.865Z,2.70
2023-03-20T06:44:04.006Z,2.73
2023-03-20T06:46:38.655Z,2.80
2023-03-20T06:49:13.672Z,3.13
2023-03-20T06:51:42.756Z,3.43
2023-03-20T06:54:17.589Z,3.63
2023-03-20T06:56:45.450Z,2.90
2023-03-20T06:59:19.460Z,3.00
2023-03-20T07:01:48.231Z,2.70
2023-03-20T07:04:24.636Z,2.80
2023-03-20T07:07:12.807Z,2.77
2023-03-20T07:09:47.537Z,2.73
2023-03-20T07:12:17.216Z,2.70
2023-03-20T07:14:52.566Z,2.60
2023-03-20T07:17:20.649Z,2.73
2023-03-20T07:19:55.660Z,2.90
2023-03-20T07:22:32.566Z,2.60
2023-03-20T07:25:06.554Z,2.97
2023-03-20T07:27:41.608Z,2.77
2023-03-20T07:30:10.795Z,2.53
2023-03-20T07:33:00.777Z,2.60
2023-03-20T07:35:42.643Z,2.90
2023-03-20T07:38:10.643Z,2.70
2023-03-20T07:40:44.580Z,2.70
2023-03-20T07:43:19.384Z,2.50
2023-03-20T07:45:54.513Z,2.27
2023-03-20T07:48:23.080Z,2.43
2023-03-20T07:50:57.450Z,2.80
2023-03-20T07:53:31.438Z,2.80
2023-03-20T07:55:59.071Z,2.93
2023-03-20T07:58:33.393Z,3.50
2023-03-20T08:01:00.969Z,3.53
2023-03-20T08:03:28.808Z,3.27
2023-03-20T08:06:04.389Z,3.37
2023-03-20T08:08:38.613Z,3.40
2023-03-20T08:11:13.714Z,3.63
2023-03-20T08:13:41.351Z,3.40
2023-03-20T08:16:15.454Z,4.10
2023-03-20T08:18:43.148Z,3.70
2023-03-20T08:21:18.462Z,3.83
2023-03-20T08:23:46.260Z,3.87
2023-03-20T08:26:21.443Z,3.93
2023-03-20T08:28:55.416Z,4.37
2023-03-20T08:31:29.447Z,4.60
2023-03-20T08:33:57.479Z,3.93
2023-03-20T08:36:32.437Z,4.30
2023-03-20T08:39:07.466Z,4.20
2023-03-20T08:41:37.802Z,4.10
2023-03-20T08:44:13.393Z,3.60
2023-03-20T08:46:47.387Z,3.47
2023-03-20T08:49:22.467Z,4.07
2023-03-20T08:51:49.966Z,3.60
2023-03-20T08:54:25.478Z,3.47
2023-03-20T08:57:01.855Z,3.17
2023-03-20T08:59:35.852Z,3.47
2023-03-20T09:02:11.034Z,2.92
2023-03-20T09:04:45.867Z,2.90
2023-03-20T09:07:20.889Z,3.00
2023-03-20T09:09:54.835Z,2.72
2023-03-20T09:12:22.409Z,2.50
2023-03-20T09:14:56.847Z,2.40
2023-03-20T09:17:30.869Z,2.58
2023-03-20T09:19:58.974Z,2.45
2023-03-20T09:22:26.530Z,2.33
2023-03-20T09:25:00.883Z,2.30
2023-03-20T09:27:36.704Z,2.25
2023-03-20T09:30:12.864Z,2.25
2023-03-20T09:32:41.615Z,2.85
2023-03-20T09:35:15.960Z,2.40
2023-03-20T09:37:43.969Z,2.08
2023-03-20T09:40:45.830Z,2.33
2023-03-20T09:43:39.847Z,2.10
2023-03-20T09:46:14.945Z,2.00
2023-03-20T09:48:54.379Z,2.50
2023-03-20T09:51:39.867Z,1.90
2023-03-20T09:54:17.693Z,2.10
2023-03-20T09:56:51.872Z,2.30
2023-03-20T09:59:20.942Z,2.80
2023-03-20T10:02:00.886Z,2.28
2023-03-20T10:04:30.599Z,2.38
2023-03-20T10:07:11.926Z,2.22
2023-03-20T10:09:45.910Z,2.30
2023-03-20T10:12:41.130Z,1.98
2023-03-20T10:15:44.869Z,2.38
2023-03-20T10:18:30.900Z,2.28
2023-03-20T10:21:11.880Z,2.15
2023-03-20T10:24:08.843Z,2.00
2023-03-20T10:26:38.781Z,2.15
2023-03-20T10:29:33.857Z,2.40
2023-03-20T10:32:49.021Z,2.00
2023-03-20T10:36:09.996Z,2.22
2023-03-20T10:38:48.831Z,2.13
2023-03-20T10:41:29.900Z,2.30
2023-03-20T10:44:00.220Z,2.15
2023-03-20T10:46:42.062Z,2.00
2023-03-20T10:49:19.704Z,2.13
2023-03-20T10:51:53.921Z,1.80
2023-03-20T10:54:36.932Z,1.52
2023-03-20T10:57:14.900Z,1.50
2023-03-20T10:59:55.906Z,1.90
2023-03-20T11:02:37.925Z,1.80
2023-03-20T11:05:21.053Z,1.80
2023-03-20T11:08:12.861Z,1.90
2023-03-20T11:10:48.914Z,1.58
2023-03-20T11:13:30.304Z,2.00
2023-03-20T11:16:04.071Z,2.10
2023-03-20T11:18:32.168Z,2.22
2023-03-20T11:21:07.948Z,2.10
2023-03-20T11:23:36.008Z,2.15
2023-03-20T11:26:14.933Z,2.08
2023-03-20T11:29:01.942Z,2.17
2023-03-20T11:31:47.935Z,2.10
2023-03-20T11:34:15.533Z,2.10
2023-03-20T11:37:10.815Z,2.20
2023-03-20T11:39:40.267Z,1.95
2023-03-20T11:42:30.311Z,2.40
2023-03-20T11:45:22.357Z,1.67
2023-03-20T11:48:04.305Z,1.95
2023-03-20T11:50:37.525Z,1.80
2023-03-20T11:53:36.237Z,1.70
2023-03-20T11:56:11.628Z,1.58
2023-03-20T11:59:08.292Z,1.67
2023-03-20T12:01:53.280Z,1.70
2023-03-20T12:04:49.279Z,1.70
2023-03-20T12:08:00.308Z,1.70
2023-03-20T12:10:41.648Z,1.70
2023-03-20T12:13:27.140Z,1.88
2023-03-20T12:16:18.322Z,1.63
2023-03-20T12:18:50.631Z,1.48
2023-03-20T12:21:48.337Z,2.03
2023-03-20T12:24:54.311Z,2.25
2023-03-20T12:27:38.458Z,2.40
2023-03-20T12:30:28.379Z,2.45
2023-03-20T12:33:21.312Z,2.20
2023-03-20T12:35:59.398Z,1.90
2023-03-20T12:38:34.575Z,2.50
2023-03-20T12:41:17.304Z,1.88
2023-03-20T12:43:51.473Z,1.70
2023-03-20T12:46:50.256Z,1.80
2023-03-20T12:49:31.219Z,1.58
2023-03-20T12:52:39.262Z,1.70
2023-03-20T12:55:13.326Z,1.55
2023-03-20T12:57:51.534Z,1.13
2023-03-20T13:00:35.045Z,1.35
2023-03-20T13:03:34.479Z,1.63
2023-03-20T13:06:11.579Z,1.80
2023-03-20T13:09:14.521Z,1.60
2023-03-20T13:12:04.528Z,1.60
2023-03-20T13:14:51.595Z,1.23
2023-03-20T13:17:36.964Z,2.17
2023-03-20T13:20:23.569Z,1.70
2023-03-20T13:23:42.485Z,1.67
2023-03-20T13:26:35.553Z,1.60
2023-03-20T13:29:21.535Z,1.52
2023-03-20T13:32:10.510Z,1.20
2023-03-20T13:35:20.658Z,1.65
2023-03-20T13:37:56.706Z,1.50
2023-03-20T13:40:32.531Z,1.67
2023-03-20T13:43:06.637Z,1.70
2023-03-20T13:45:43.591Z,1.58
2023-03-20T13:48:24.330Z,2.03
2023-03-20T13:51:08.522Z,1.95
2023-03-20T13:53:48.655Z,1.92
2023-03-20T13:56:52.537Z,1.80
2023-03-20T13:59:32.184Z,1.90
2023-03-20T14:02:22.491Z,2.00
2023-03-20T14:05:05.580Z,1.92
2023-03-20T14:07:45.774Z,1.98
2023-03-20T14:10:29.689Z,2.00
2023-03-20T14:13:27.419Z,2.22
2023-03-20T14:16:03.614Z,2.60
2023-03-20T14:18:38.557Z,2.10
2023-03-20T14:21:21.490Z,1.80
2023-03-20T14:24:06.602Z,2.15
2023-03-20T14:26:48.840Z,2.30
2023-03-20T14:29:23.516Z,2.22
2023-03-20T14:31:58.547Z,2.40
2023-03-20T14:34:25.967Z,2.22
2023-03-20T14:37:08.710Z,2.33
2023-03-20T14:40:08.818Z,2.35
2023-03-20T14:43:04.885Z,2.17
2023-03-20T14:45:48.629Z,1.92
2023-03-20T14:48:38.750Z,2.40
2023-03-20T14:51:40.170Z,2.28
2023-03-20T14:54:23.134Z,2.58
2023-03-20T14:56:58.726Z,2.05
2023-03-20T14:59:26.220Z,2.15
2023-03-20T15:02:02.685Z,2.00
2023-03-20T15:04:43.677Z,2.00
2023-03-20T15:07:34.655Z,2.20
2023-03-20T15:10:17.765Z,2.05
2023-03-20T15:12:53.639Z,2.10
2023-03-20T15:15:31.679Z,2.05
2023-03-20T15:18:21.681Z,2.15
2023-03-20T15:20:56.600Z,2.10
2023-03-20T15:23:32.643Z,2.50
2023-03-20T15:26:07.670Z,2.88
2023-03-20T15:28:44.628Z,2.10
2023-03-20T15:31:39.663Z,2.45
2023-03-20T15:34:28.667Z,1.85
2023-03-20T15:37:02.121Z,2.17
2023-03-20T15:39:47.648Z,2.45
2023-03-20T15:42:17.534Z,2.30
2023-03-20T15:44:54.711Z,2.40
2023-03-20T15:47:24.541Z,2.20
2023-03-20T15:50:09.616Z,2.30
2023-03-20T15:52:47.624Z,2.30
2023-03-20T15:55:21.269Z,2.10
2023-03-20T15:57:56.623Z,2.90
2023-03-20T16:00:37.949Z,2.47
2023-03-20T16:03:16.567Z,2.28
2023-03-20T16:05:52.631Z,2.63
2023-03-20T16:08:38.613Z,2.22
2023-03-20T16:11:17.603Z,2.03
2023-03-20T16:13:54.680Z,2.58
2023-03-20T16:16:24.724Z,2.27
2023-03-20T16:18:59.371Z,2.67
2023-03-20T16:21:40.748Z,2.70
2023-03-20T16:24:22.694Z,2.70
2023-03-20T16:26:53.096Z,2.40
2023-03-20T16:29:29.701Z,2.28
2023-03-20T16:32:26.961Z,2.40
2023-03-20T16:35:03.663Z,2.78
2023-03-20T16:37:37.661Z,2.40
2023-03-20T16:40:22.695Z,2.47
2023-03-20T16:42:54.813Z,2.67
2023-03-20T16:45:37.808Z,2.50
2023-03-20T16:48:11.507Z,2.47
2023-03-20T16:50:46.713Z,2.53
2023-03-20T16:53:23.558Z,2.30
2023-03-20T16:56:01.865Z,2.83
2023-03-20T16:58:32.191Z,2.25
2023-03-20T17:01:10.735Z,2.47
2023-03-20T17:03:54.772Z,2.13
2023-03-20T17:06:28.688Z,2.00
2023-03-20T17:09:08.678Z,1.90
2023-03-20T17:11:44.693Z,2.13
2023-03-20T17:14:19.655Z,2.03
2023-03-20T17:16:53.796Z,2.00
2023-03-20T17:19:28.671Z,2.20
2023-03-20T17:22:04.660Z,2.20
2023-03-20T17:24:40.102Z,2.20
2023-03-20T17:27:17.179Z,1.90
2023-03-20T17:29:52.085Z,2.10
2023-03-20T17:32:23.983Z,1.90
2023-03-20T17:34:58.115Z,2.20
2023-03-20T17:37:36.138Z,2.13
2023-03-20T17:40:11.081Z,2.80
2023-03-20T17:42:39.470Z,2.00
2023-03-20T17:45:14.366Z,2.10
2023-03-20T17:47:50.192Z,2.37
2023-03-20T17:50:32.109Z,2.03
2023-03-20T17:53:06.096Z,2.00
2023-03-20T17:55:33.511Z,1.80
2023-03-20T17:58:07.207Z,1.87
2023-03-20T18:00:41.189Z,1.63
2023-03-20T18:03:15.155Z,1.70
2023-03-20T18:05:49.066Z,1.87
2023-03-20T18:08:23.482Z,2.00
2023-03-20T18:10:59.064Z,1.90
2023-03-20T18:13:27.441Z,1.80
2023-03-20T18:16:04.156Z,2.30
2023-03-20T18:18:32.880Z,2.03
2023-03-20T18:21:07.124Z,1.90
2023-03-20T18:23:35.455Z,2.03
2023-03-20T18:26:10.148Z,1.77
2023-03-20T18:28:44.147Z,1.77
2023-03-20T18:31:21.142Z,1.63
2023-03-20T18:33:51.801Z,2.03
2023-03-20T18:36:28.144Z,1.60
2023-03-20T18:38:55.663Z,1.73
2023-03-20T18:41:23.570Z,1.30
2023-03-20T18:43:58.120Z,1.93
2023-03-20T18:46:27.303Z,1.70
2023-03-20T18:49:02.128Z,1.77
2023-03-20T18:51:36.139Z,2.13
2023-03-20T18:54:10.268Z,2.00
2023-03-20T18:56:38.008Z,1.47
2023-03-20T18:59:14.225Z,1.87
2023-03-20T19:01:41.739Z,1.90
2023-03-20T19:04:18.335Z,1.80
2023-03-20T19:06:48.620Z,1.90
2023-03-20T19:09:30.262Z,1.60
2023-03-20T19:11:57.845Z,1.70
2023-03-20T19:14:32.223Z,1.60
2023-03-20T19:17:06.275Z,1.70
2023-03-20T19:19:41.295Z,1.80
2023-03-20T19:22:28.520Z,1.77
2023-03-20T19:25:03.386Z,1.60
2023-03-20T19:27:37.245Z,1.57
2023-03-20T19:30:05.896Z,1.80
2023-03-20T19:32:40.276Z,1.70
2023-03-20T19:35:54.434Z,1.50
2023-03-20T19:38:11.352Z,1.57
2023-03-20T19:40:48.220Z,1.67
2023-03-20T19:43:17.277Z,1.70
2023-03-20T19:45:51.277Z,1.30
2023-03-20T19:48:50.521Z,1.50
2023-03-20T19:51:34.397Z,1.80
2023-03-20T19:54:02.707Z,1.50
2023-03-20T19:56:30.164Z,1.60
2023-03-20T19:59:04.256Z,1.30
2023-03-20T20:01:31.706Z,1.30
2023-03-20T20:04:05.272Z,1.30
2023-03-20T20:06:33.387Z,1.50
2023-03-20T20:09:14.607Z,1.20
2023-03-20T20:11:48.355Z,1.30
2023-03-20T20:14:23.753Z,1.40
2023-03-20T20:16:54.728Z,1.50
2023-03-20T20:19:30.300Z,1.20
2023-03-20T20:22:27.911Z,1.50
2023-03-20T20:24:52.237Z,1.40
2023-03-20T20:27:19.720Z,1.37
2023-03-20T20:29:56.305Z,1.50
2023-03-20T20:32:26.417Z,1.20
2023-03-20T20:38:40.283Z,1.20
2023-03-20T20:40:51.253Z,1.30
2023-03-20T20:43:47.315Z,1.37
2023-03-20T20:46:14.325Z,1.53
2023-03-20T20:48:50.361Z,1.50
2023-03-20T20:51:25.593Z,1.40
2023-03-20T20:53:53.123Z,1.40
2023-03-20T20:56:27.497Z,1.43
2023-03-20T20:59:01.403Z,1.37
2023-03-20T21:01:35.331Z,1.50
2023-03-20T21:04:03.098Z,1.70
2023-03-20T21:07:06.220Z,1.53
2023-03-20T21:09:40.939Z,1.50
2023-03-20T21:12:33.583Z,1.60
2023-03-20T21:15:04.866Z,1.33
2023-03-20T21:17:47.275Z,1.67
2023-03-20T21:20:25.289Z,1.60
2023-03-20T21:22:59.268Z,1.10
2023-03-20T21:25:39.783Z,1.60
2023-03-20T21:28:16.324Z,1.30
2023-03-20T21:31:04.213Z,1.10
2023-03-20T21:33:43.521Z,1.30
2023-03-20T21:36:10.955Z,1.27
2023-03-20T21:39:06.904Z,1.37
2023-03-20T21:41:41.293Z,1.10
2023-03-20T21:44:18.161Z,1.33
2023-03-20T21:48:12.363Z,0.90
2023-03-20T21:50:31.347Z,1.20
2023-03-20T21:56:31.359Z,1.20
2023-03-20T21:59:14.458Z,1.23
2023-03-20T22:07:36.578Z,1.30
2023-03-20T22:10:53.251Z,1.23
2023-03-20T22:13:38.741Z,1.50
2023-03-20T22:16:41.159Z,1.20
2023-03-20T22:22:13.770Z,1.27
2023-03-20T22:39:39.231Z,1.30
2023-03-20T22:42:24.133Z,1.60
2023-03-20T22:44:58.914Z,1.40
2023-03-20T22:47:20.433Z,1.80
2023-03-20T22:49:54.274Z,1.60
2023-03-20T22:52:41.665Z,1.60
2023-03-20T22:55:23.344Z,1.83
2023-03-20T22:58:07.008Z,2.10
2023-03-20T23:00:43.350Z,2.50
2023-03-20T23:03:29.918Z,2.17
2023-03-20T23:06:23.379Z,1.80
2023-03-20T23:09:03.135Z,1.50
2023-03-20T23:11:39.534Z,1.70
2023-03-20T23:14:21.146Z,1.77
2023-03-20T23:16:57.263Z,1.90
2023-03-20T23:19:26.504Z,1.80
2023-03-20T23:22:00.577Z,1.43
2023-03-20T23:24:35.268Z,1.40
2023-03-20T23:27:09.324Z,1.73
2023-03-20T23:29:43.302Z,1.70
2023-03-20T23:32:17.327Z,1.90
2023-03-20T23:34:51.308Z,1.60
2023-03-20T23:37:25.286Z,1.60
2023-03-20T23:39:59.300Z,1.70
2023-03-20T23:42:30.884Z,1.90
2023-03-20T23:45:19.174Z,1.60
2023-03-20T23:47:54.382Z,1.70
2023-03-20T23:50:42.622Z,1.60
2023-03-20T23:53:25.485Z,1.47
2023-03-20T23:56:10.168Z,1.60
2023-03-20T23:58:41.957Z,1.50
